createdAt,value
2018-07-23T00:02:18.470Z,94248.00
2018-07-23T00:04:49.329Z,94243.00
2018-07-23T00:07:20.204Z,94243.00
2018-07-23T00:09:50.989Z,94250.00
2018-07-23T00:12:21.878Z,94248.00
2018-07-23T00:14:52.793Z,94245.00
2018-07-23T00:17:23.668Z,94245.00
2018-07-23T00:19:54.405Z,94249.00
2018-07-23T00:22:25.273Z,94242.00
2018-07-23T00:24:56.135Z,94240.00
2018-07-23T00:27:27.017Z,94238.00
2018-07-23T00:29:58.014Z,94240.00
2018-07-23T00:32:28.818Z,94240.00
2018-07-23T00:34:59.777Z,94241.00
2018-07-23T00:37:30.709Z,94242.00
2018-07-23T00:40:01.770Z,94243.00
2018-07-23T00:42:32.689Z,94243.00
2018-07-23T00:45:03.607Z,94241.00
2018-07-23T00:47:34.431Z,94239.00
2018-07-23T00:50:05.520Z,94237.00
2018-07-23T00:52:36.858Z,94231.00
2018-07-23T00:55:07.702Z,94235.00
2018-07-23T00:57:38.575Z,94233.00
2018-07-23T01:00:09.448Z,94234.00
2018-07-23T01:02:40.310Z,94236.00
2018-07-23T01:05:11.192Z,94232.00
2018-07-23T01:07:42.129Z,94225.00
2018-07-23T01:10:13.074Z,94229.00
2018-07-23T01:12:43.970Z,94236.00
2018-07-23T01:15:14.905Z,94241.00
2018-07-23T01:17:45.804Z,94241.00
2018-07-23T01:20:16.330Z,94238.00
2018-07-23T01:22:47.281Z,94241.00
2018-07-23T01:25:18.414Z,94239.00
2018-07-23T01:27:49.293Z,94232.00
2018-07-23T01:30:20.212Z,94223.00
2018-07-23T01:32:51.132Z,94226.00
2018-07-23T01:35:22.066Z,94228.00
2018-07-23T01:37:53.000Z,94231.00
2018-07-23T01:40:24.121Z,94234.00
2018-07-23T01:42:55.163Z,94232.00
2018-07-23T01:45:26.335Z,94235.00
2018-07-23T01:47:57.246Z,94239.00
2018-07-23T01:50:28.265Z,94240.00
2018-07-23T01:52:59.092Z,94233.00
2018-07-23T01:55:29.918Z,94225.00
2018-07-23T01:58:00.858Z,94224.00
2018-07-23T02:00:31.664Z,94222.00
2018-07-23T02:03:02.609Z,94223.00
2018-07-23T02:05:33.492Z,94226.00
2018-07-23T02:08:04.436Z,94224.00
2018-07-23T02:10:35.173Z,94228.00
2018-07-23T02:13:06.244Z,94231.00
2018-07-23T02:15:37.058Z,94235.00
2018-07-23T02:18:08.059Z,94238.00
2018-07-23T02:20:38.752Z,94242.00
2018-07-23T02:23:09.735Z,94241.00
2018-07-23T02:25:40.621Z,94240.00
2018-07-23T02:28:11.551Z,94236.00
2018-07-23T02:30:42.289Z,94237.00
2018-07-23T02:33:13.071Z,94233.00
2018-07-23T02:35:43.821Z,94226.00
2018-07-23T02:38:14.658Z,94233.00
2018-07-23T02:40:45.421Z,94240.00
2018-07-23T02:43:16.229Z,94237.00
2018-07-23T02:45:46.937Z,94234.00
2018-07-23T02:48:17.812Z,94237.00
2018-07-23T02:50:48.456Z,94236.00
2018-07-23T02:53:19.245Z,94236.00
2018-07-23T02:55:50.119Z,94233.00
2018-07-23T02:58:20.936Z,94237.00
2018-07-23T03:00:52.110Z,94241.00
2018-07-23T03:03:22.929Z,94247.00
2018-07-23T03:05:53.849Z,94248.00
2018-07-23T03:08:24.548Z,94240.00
2018-07-23T03:10:55.396Z,94240.00
2018-07-23T03:13:26.272Z,94237.00
2018-07-23T03:15:57.337Z,94236.00
2018-07-23T03:18:28.140Z,94234.00
2018-07-23T03:20:58.863Z,94228.00
2018-07-23T03:23:29.772Z,94222.00
2018-07-23T03:26:00.691Z,94219.00
2018-07-23T03:28:31.776Z,94215.00
2018-07-23T03:31:02.708Z,94218.00
2018-07-23T03:33:33.501Z,94215.00
2018-07-23T03:36:04.441Z,94213.00
2018-07-23T03:38:35.205Z,94217.00
2018-07-23T03:41:05.952Z,94214.00
2018-07-23T03:43:36.756Z,94219.00
2018-07-23T03:46:07.562Z,94215.00
2018-07-23T03:48:38.336Z,94215.00
2018-07-23T03:51:09.600Z,94216.00
2018-07-23T03:53:40.438Z,94221.00
2018-07-23T03:56:11.447Z,94228.00
2018-07-23T03:58:42.411Z,94220.00
2018-07-23T04:01:13.300Z,94224.00
2018-07-23T04:03:44.397Z,94230.00
2018-07-23T04:06:15.195Z,94230.00
2018-07-23T04:08:46.173Z,94235.00
2018-07-23T04:11:17.020Z,94238.00
2018-07-23T04:13:47.821Z,94234.00
2018-07-23T04:16:18.694Z,94235.00
2018-07-23T04:18:49.546Z,94231.00
2018-07-23T04:21:20.367Z,94234.00
2018-07-23T04:23:51.476Z,94233.00
2018-07-23T04:26:22.486Z,94231.00
2018-07-23T04:35:21.407Z,94230.00
2018-07-23T04:37:52.373Z,94222.00
2018-07-23T04:40:23.474Z,94221.00
2018-07-23T04:42:54.715Z,94223.00
2018-07-23T04:45:25.706Z,94216.00
2018-07-23T04:47:56.647Z,94203.00
2018-07-23T04:50:27.714Z,94207.00
2018-07-23T04:52:58.892Z,94198.00
2018-07-23T04:55:29.902Z,94197.00
2018-07-23T04:58:01.029Z,94194.00
2018-07-23T05:00:32.299Z,94188.00
2018-07-23T05:03:03.418Z,94179.00
2018-07-23T05:05:34.361Z,94181.00
2018-07-23T05:08:05.303Z,94180.00
2018-07-23T05:10:36.395Z,94172.00
2018-07-23T05:13:07.585Z,94172.00
2018-07-23T05:15:38.595Z,94175.00
2018-07-23T05:18:09.613Z,94169.00
2018-07-23T05:20:40.658Z,94174.00
2018-07-23T05:23:11.612Z,94179.00
2018-07-23T05:25:42.722Z,94185.00
2018-07-23T05:28:13.345Z,94192.00
2018-07-23T05:30:44.264Z,94189.00
2018-07-23T05:33:15.756Z,94186.00
2018-07-23T05:35:46.743Z,94187.00
2018-07-23T05:38:17.802Z,94181.00
2018-07-23T05:40:48.846Z,94174.00
2018-07-23T05:43:19.897Z,94182.00
2018-07-23T05:45:50.820Z,94173.00
2018-07-23T05:48:21.895Z,94177.00
2018-07-23T05:50:52.987Z,94176.00
2018-07-23T05:53:24.952Z,94174.00
2018-07-23T05:55:55.845Z,94173.00
2018-07-23T05:58:26.807Z,94176.00
2018-07-23T06:00:57.848Z,94172.00
2018-07-23T06:03:29.008Z,94182.00
2018-07-23T06:06:00.088Z,94174.00
2018-07-23T06:08:31.082Z,94174.00
2018-07-23T06:11:02.074Z,94170.00
2018-07-23T06:13:33.384Z,94168.00
2018-07-23T06:16:04.387Z,94170.00
2018-07-23T06:18:35.311Z,94172.00
2018-07-23T06:21:06.372Z,94174.00
2018-07-23T06:23:37.639Z,94169.00
2018-07-23T06:26:09.037Z,94166.00
2018-07-23T06:28:40.065Z,94169.00
2018-07-23T06:31:10.936Z,94164.00
2018-07-23T06:33:41.910Z,94167.00
2018-07-23T06:36:13.029Z,94176.00
2018-07-23T06:38:44.109Z,94172.00
2018-07-23T06:41:15.053Z,94169.00
2018-07-23T06:43:45.968Z,94170.00
2018-07-23T06:46:16.992Z,94167.00
2018-07-23T06:48:47.835Z,94158.00
2018-07-23T06:51:18.977Z,94152.00
2018-07-23T06:53:49.868Z,94154.00
2018-07-23T06:56:20.394Z,94146.00
2018-07-23T06:58:51.252Z,94143.00
2018-07-23T07:01:22.430Z,94153.00
2018-07-23T07:03:53.456Z,94142.00
2018-07-23T07:06:24.601Z,94149.00
2018-07-23T07:08:55.851Z,94147.00
2018-07-23T07:11:26.858Z,94139.00
2018-07-23T07:13:57.834Z,94148.00
2018-07-23T07:16:28.774Z,94154.00
2018-07-23T07:18:59.713Z,94154.00
2018-07-23T07:21:30.672Z,94148.00
2018-07-23T07:24:01.640Z,94150.00
2018-07-23T07:26:32.450Z,94150.00
2018-07-23T07:29:03.425Z,94150.00
2018-07-23T07:31:34.408Z,94138.00
2018-07-23T07:34:05.377Z,94134.00
2018-07-23T07:36:36.445Z,94130.00
2018-07-23T07:39:11.927Z,94128.00
2018-07-23T07:41:43.141Z,94119.00
2018-07-23T07:44:14.251Z,94121.00
2018-07-23T07:46:45.150Z,94117.00
2018-07-23T07:49:16.112Z,94118.00
2018-07-23T07:51:46.977Z,94120.00
2018-07-23T07:54:18.052Z,94115.00
2018-07-23T07:56:48.968Z,94112.00
2018-07-23T07:59:19.970Z,94109.00
2018-07-23T08:01:50.963Z,94107.00
2018-07-23T08:04:21.984Z,94112.00
2018-07-23T08:06:52.847Z,94112.00
2018-07-23T08:09:23.831Z,94102.00
2018-07-23T08:11:54.819Z,94103.00
2018-07-23T08:14:25.775Z,94105.00
2018-07-23T08:16:56.773Z,94097.00
2018-07-23T08:19:27.257Z,94099.00
2018-07-23T08:21:58.315Z,94095.00
2018-07-23T08:24:29.369Z,94092.00
2018-07-23T08:27:00.449Z,94086.00
2018-07-23T08:29:32.223Z,94088.00
2018-07-23T08:32:03.565Z,94083.00
2018-07-23T08:34:34.486Z,94080.00
2018-07-23T08:37:05.579Z,94079.00
2018-07-23T08:39:36.637Z,94069.00
2018-07-23T08:42:07.695Z,94072.00
2018-07-23T08:44:38.840Z,94060.00
2018-07-23T08:47:09.912Z,94061.00
2018-07-23T08:49:41.013Z,94056.00
2018-07-23T08:52:11.973Z,94057.00
2018-07-23T08:54:43.134Z,94054.00
2018-07-23T08:57:14.015Z,94053.00
2018-07-23T08:59:45.311Z,94048.00
2018-07-23T09:02:16.446Z,94051.00
2018-07-23T09:04:47.484Z,94049.00
2018-07-23T09:07:18.601Z,94038.00
2018-07-23T09:09:49.749Z,94040.00
2018-07-23T09:12:20.813Z,94032.00
2018-07-23T09:14:51.871Z,94028.00
2018-07-23T09:17:23.038Z,94014.00
2018-07-23T09:19:54.267Z,94009.00
2018-07-23T09:22:25.506Z,94002.00
2018-07-23T09:24:56.620Z,93997.00
2018-07-23T09:27:27.589Z,93993.00
2018-07-23T09:29:58.471Z,94002.00
2018-07-23T09:32:29.449Z,93995.00
2018-07-23T09:35:00.347Z,93991.00
2018-07-23T09:37:31.248Z,93992.00
2018-07-23T09:40:02.337Z,93984.00
2018-07-23T09:42:33.318Z,93974.00
2018-07-23T09:45:04.329Z,93974.00
2018-07-23T09:47:35.158Z,93975.00
2018-07-23T09:50:06.222Z,93962.00
2018-07-23T09:52:36.793Z,93961.00
2018-07-23T09:55:07.680Z,93964.00
2018-07-23T09:57:38.511Z,93969.00
2018-07-23T10:00:09.415Z,93975.00
2018-07-23T10:02:40.354Z,93986.00
2018-07-23T10:05:11.405Z,93986.00
2018-07-23T10:07:42.268Z,93979.00
2018-07-23T10:10:13.223Z,93982.00
2018-07-23T10:12:44.145Z,93987.00
2018-07-23T10:15:15.268Z,93997.00
2018-07-23T10:17:46.166Z,93989.00
2018-07-23T10:20:17.167Z,94000.00
2018-07-23T10:22:48.086Z,93990.00
2018-07-23T10:25:19.080Z,93977.00
2018-07-23T10:27:50.061Z,93976.00
2018-07-23T10:30:21.034Z,93971.00
2018-07-23T10:32:51.997Z,93961.00
2018-07-23T10:35:23.104Z,93966.00
2018-07-23T10:37:54.057Z,93988.00
2018-07-23T10:40:25.610Z,93997.00
2018-07-23T10:42:56.831Z,93994.00
2018-07-23T10:45:27.843Z,93991.00
2018-07-23T10:47:58.804Z,93995.00
2018-07-23T10:50:29.795Z,93984.00
2018-07-23T10:53:00.680Z,93992.00
2018-07-23T10:55:31.533Z,94012.00
2018-07-23T10:58:02.338Z,93998.00
2018-07-23T11:00:33.230Z,93971.00
2018-07-23T11:03:04.086Z,93952.00
2018-07-23T11:05:35.052Z,93931.00
2018-07-23T11:08:06.077Z,93921.00
2018-07-23T11:10:37.047Z,93907.00
2018-07-23T11:13:08.493Z,93910.00
2018-07-23T11:15:39.518Z,93909.00
2018-07-23T11:18:10.855Z,93918.00
2018-07-23T11:20:41.957Z,93921.00
2018-07-23T11:23:12.736Z,93900.00
2018-07-23T11:25:43.855Z,93888.00
2018-07-23T11:28:14.986Z,93882.00
2018-07-23T11:30:46.054Z,93883.00
2018-07-23T11:33:17.245Z,93888.00
2018-07-23T11:35:48.439Z,93889.00
2018-07-23T11:38:19.459Z,93884.00
2018-07-23T11:40:50.686Z,93883.00
2018-07-23T11:43:22.121Z,93877.00
2018-07-23T11:45:53.177Z,93881.00
2018-07-23T11:48:24.343Z,93885.00
2018-07-23T11:50:54.923Z,93882.00
2018-07-23T11:53:25.985Z,93887.00
2018-07-23T11:55:57.664Z,93879.00
2018-07-23T11:58:28.776Z,93876.00
2018-07-23T12:00:59.742Z,93880.00
2018-07-23T17:11:58.373Z,93944.00
2018-07-23T17:14:30.525Z,93942.00
2018-07-23T17:17:03.115Z,93944.00
2018-07-23T17:19:35.440Z,93956.00
2018-07-23T17:22:07.795Z,93956.00
2018-07-23T17:24:39.899Z,93959.00
2018-07-23T17:27:12.034Z,93971.00
2018-07-23T17:29:44.039Z,93971.00
2018-07-23T17:32:16.317Z,93981.00
2018-07-23T17:34:48.471Z,93977.00
2018-07-23T17:37:20.801Z,93980.00
2018-07-23T17:39:53.453Z,93984.00
2018-07-23T17:42:26.619Z,93984.00
2018-07-23T17:44:58.021Z,93993.00
2018-07-23T17:47:29.924Z,93983.00
2018-07-23T17:50:02.122Z,93989.00
2018-07-23T17:52:34.367Z,93993.00
2018-07-23T17:55:06.992Z,93990.00
2018-07-23T17:57:38.945Z,93987.00
2018-07-23T18:00:11.353Z,93986.00
2018-07-23T18:02:43.339Z,93987.00
2018-07-23T18:05:16.924Z,93989.00
2018-07-23T18:07:48.925Z,93993.00
2018-07-23T18:10:20.786Z,93996.00
2018-07-23T18:12:53.057Z,93993.00
2018-07-23T18:15:25.247Z,94013.00
2018-07-23T18:17:58.795Z,94019.00
2018-07-23T18:20:31.249Z,94015.00
2018-07-23T18:23:04.001Z,94018.00
2018-07-23T18:25:36.324Z,94018.00
2018-07-23T18:28:08.824Z,94022.00
2018-07-23T18:30:40.808Z,94027.00
2018-07-23T18:33:13.364Z,94028.00
2018-07-23T18:35:45.535Z,94039.00
2018-07-23T18:38:17.811Z,94037.00
2018-07-23T18:40:49.369Z,94035.00
2018-07-23T18:43:22.175Z,94040.00
2018-07-23T18:45:54.445Z,94055.00
2018-07-23T18:49:36.861Z,94063.00
2018-07-23T18:52:09.271Z,94065.00
2018-07-23T18:54:42.858Z,94062.00
2018-07-23T18:57:16.377Z,94068.00
2018-07-23T18:59:48.437Z,94072.00
2018-07-23T19:02:20.984Z,94070.00
2018-07-23T19:04:54.113Z,94075.00
2018-07-23T19:07:26.501Z,94070.00
2018-07-23T19:09:59.081Z,94069.00
2018-07-23T19:12:30.876Z,94072.00
2018-07-23T19:15:03.443Z,94068.00
2018-07-23T19:17:36.441Z,94066.00
2018-07-23T19:20:08.614Z,94067.00
2018-07-23T19:22:42.676Z,94065.00
2018-07-23T19:25:15.306Z,94064.00
2018-07-23T19:27:49.133Z,94057.00
2018-07-23T19:30:23.184Z,94059.00
2018-07-23T19:32:55.564Z,94051.00
2018-07-23T19:35:30.288Z,94051.00
2018-07-23T19:38:03.652Z,94057.00
2018-07-23T19:40:37.252Z,94056.00
2018-07-23T19:43:10.897Z,94055.00
2018-07-23T19:45:44.295Z,94057.00
2018-07-23T19:48:16.958Z,94050.00
2018-07-23T19:50:50.686Z,94048.00
2018-07-23T19:53:23.656Z,94045.00
2018-07-23T19:55:57.359Z,94046.00
2018-07-23T19:58:30.030Z,94043.00
2018-07-23T20:01:02.941Z,94047.00
2018-07-23T20:03:36.569Z,94043.00
2018-07-23T20:06:10.053Z,94044.00
2018-07-23T20:08:43.539Z,94044.00
2018-07-23T20:11:16.774Z,94042.00
2018-07-23T20:13:49.454Z,94038.00
2018-07-23T20:16:21.831Z,94033.00
2018-07-23T20:18:55.364Z,94031.00
2018-07-23T20:21:29.227Z,94027.00
2018-07-23T20:24:02.650Z,94028.00
2018-07-23T20:26:36.438Z,94029.00
2018-07-23T20:29:10.182Z,94035.00
2018-07-23T20:31:44.332Z,94032.00
2018-07-23T20:34:17.934Z,94025.00
2018-07-23T20:36:52.588Z,94025.00
2018-07-23T20:39:26.064Z,94027.00
2018-07-23T20:41:59.688Z,94031.00
2018-07-23T20:44:33.072Z,94026.00
2018-07-23T20:47:06.245Z,94024.00
2018-07-23T20:49:39.341Z,94030.00
2018-07-23T20:52:12.603Z,94027.00
2018-07-23T20:54:51.421Z,94023.00
2018-07-23T20:57:24.026Z,94019.00
2018-07-23T20:59:56.509Z,94015.00
2018-07-23T21:02:28.027Z,94014.00
2018-07-23T21:05:01.980Z,94020.00
2018-07-23T21:07:34.920Z,94018.00
2018-07-23T21:10:08.204Z,94015.00
2018-07-23T21:12:41.413Z,94021.00
2018-07-23T21:15:14.750Z,94021.00
2018-07-23T21:17:47.031Z,94019.00
2018-07-23T21:20:19.571Z,94017.00
2018-07-23T21:22:52.016Z,94020.00
2018-07-23T21:25:24.477Z,94019.00
2018-07-23T21:27:56.652Z,94018.00
2018-07-23T21:30:28.363Z,94012.00
2018-07-23T21:33:00.877Z,94013.00
2018-07-23T21:35:32.889Z,94010.00
2018-07-23T21:38:04.702Z,94010.00
2018-07-23T21:40:36.507Z,94005.00
2018-07-23T21:43:08.478Z,94007.00
2018-07-23T21:45:40.510Z,94008.00
2018-07-23T21:48:12.515Z,94001.00
2018-07-23T21:50:44.590Z,94008.00
2018-07-23T21:53:16.587Z,94007.00
2018-07-23T21:55:48.890Z,94009.00
2018-07-23T21:58:20.944Z,94020.00
2018-07-23T22:00:52.987Z,94024.00
2018-07-23T22:03:24.682Z,94015.00
2018-07-23T22:05:55.986Z,94013.00
2018-07-23T22:08:27.746Z,94012.00
2018-07-23T22:11:00.011Z,94014.00
2018-07-23T22:13:31.664Z,94015.00
2018-07-23T22:16:03.526Z,94014.00
2018-07-23T22:18:35.412Z,94016.00
2018-07-23T22:21:07.272Z,94015.00
2018-07-23T22:23:39.470Z,94021.00
2018-07-23T22:26:11.195Z,94017.00
2018-07-23T22:28:44.276Z,94017.00
2018-07-23T22:31:16.325Z,94014.00
2018-07-23T22:33:48.490Z,94016.00
2018-07-23T22:36:20.741Z,94022.00
2018-07-23T22:38:53.019Z,94020.00
2018-07-23T22:41:25.881Z,94021.00
2018-07-23T22:43:58.131Z,94019.00
2018-07-23T22:46:30.362Z,94011.00
2018-07-23T22:49:02.615Z,94005.00
2018-07-23T22:51:35.077Z,93998.00
2018-07-23T22:54:07.494Z,94000.00
2018-07-23T22:56:38.882Z,94004.00
2018-07-23T22:59:10.616Z,94000.00
2018-07-23T23:01:43.608Z,93997.00
2018-07-23T23:04:15.213Z,93992.00
2018-07-23T23:06:47.296Z,93993.00
2018-07-23T23:09:18.900Z,93986.00
2018-07-23T23:11:51.025Z,93990.00
2018-07-23T23:14:22.951Z,93990.00
2018-07-23T23:16:54.959Z,93984.00
2018-07-23T23:19:27.261Z,93983.00
2018-07-23T23:22:00.221Z,93992.00
2018-07-23T23:24:32.541Z,93988.00
2018-07-23T23:27:04.970Z,93992.00
2018-07-23T23:29:36.676Z,93989.00
2018-07-23T23:32:07.952Z,93990.00
2018-07-23T23:34:39.661Z,93995.00
2018-07-23T23:37:11.447Z,93991.00
2018-07-23T23:39:43.235Z,93991.00
2018-07-23T23:42:15.491Z,93990.00
2018-07-23T23:44:47.393Z,93982.00
2018-07-23T23:47:19.225Z,93978.00
2018-07-23T23:49:51.178Z,93980.00
2018-07-23T23:52:23.816Z,93987.00
2018-07-23T23:54:55.432Z,93986.00
2018-07-23T23:57:27.460Z,93979.00
2018-07-23T23:59:59.437Z,93974.00
